Time;durP1;ratioP1;P1;durP2;ratioP2;P2;SDS_P1;SDS_P2;PMS_P1;PMS_P2;Temp;Humidity;BMP_temperature;BMP_pressure;BME280_temperature;BME280_humidity;BME280_pressure;Samples;Min_cycle;Max_cycle;Signal;HPM_P1;HPM_P2
2024/01/28 00:02:15;;;;;;;61.53;30.25;;;;;;;;;;4948984;28;20385;-73
2024/01/28 00:04:43;;;;;;;64.00;28.75;;;;;;;;;;4951228;29;20039;-72
2024/01/28 00:07:10;;;;;;;73.82;35.08;;;;;;;;;;4956695;28;20058;-74
2024/01/28 00:09:36;;;;;;;64.45;28.35;;;;;;;;;;4946593;29;21636;-74
2024/01/28 00:12:04;;;;;;;61.35;31.48;;;;;;;;;;4948505;28;20035;-74
2024/01/28 00:14:30;;;;;;;53.17;23.25;;;;;;;;;;4914961;29;20122;-74
2024/01/28 00:16:57;;;;;;;49.00;21.60;;;;;;;;;;4929509;29;20126;-74
2024/01/28 00:19:23;;;;;;;57.92;26.85;;;;;;;;;;4945509;29;20050;-74
2024/01/28 00:21:49;;;;;;;69.53;33.00;;;;;;;;;;4944614;28;20035;-75
2024/01/28 00:24:18;;;;;;;66.47;31.33;;;;;;;;;;4945578;28;20522;-75
2024/01/28 00:26:45;;;;;;;52.47;24.65;;;;;;;;;;4947754;28;20039;-74
2024/01/28 00:29:12;;;;;;;61.20;27.73;;;;;;;;;;4946031;29;20086;-75
2024/01/28 00:31:41;;;;;;;45.13;23.70;;;;;;;;;;4944603;28;20060;-73
2024/01/28 00:34:09;;;;;;;57.38;25.95;;;;;;;;;;4944491;28;20057;-74
2024/01/28 00:36:37;;;;;;;48.55;23.92;;;;;;;;;;4947178;28;20502;-75
2024/01/28 00:39:03;;;;;;;50.35;25.48;;;;;;;;;;4947053;29;20084;-75
2024/01/28 00:41:30;;;;;;;58.17;27.35;;;;;;;;;;4945956;28;20509;-75
2024/01/28 00:43:58;;;;;;;56.58;24.13;;;;;;;;;;4947033;29;20877;-74
2024/01/28 00:46:24;;;;;;;47.95;22.98;;;;;;;;;;4945728;28;20124;-76
2024/01/28 00:48:52;;;;;;;46.42;21.65;;;;;;;;;;4946162;29;20051;-77
2024/01/28 00:51:20;;;;;;;45.28;21.25;;;;;;;;;;4948371;28;20580;-77
2024/01/28 00:53:47;;;;;;;59.78;25.67;;;;;;;;;;4948877;29;20037;-76
2024/01/28 00:56:16;;;;;;;53.88;22.67;;;;;;;;;;4959043;28;20035;-77
2024/01/28 00:58:42;;;;;;;63.15;25.98;;;;;;;;;;4949885;28;20031;-76
2024/01/28 01:01:08;;;;;;;61.97;24.85;;;;;;;;;;4948285;28;20055;-77
2024/01/28 01:03:35;;;;;;;54.15;24.02;;;;;;;;;;4945935;29;20039;-76
2024/01/28 01:06:01;;;;;;;68.97;26.27;;;;;;;;;;4929796;28;20039;-76
2024/01/28 01:08:27;;;;;;;64.15;26.42;;;;;;;;;;4930202;29;20027;-76
2024/01/28 01:10:54;;;;;;;58.40;25.08;;;;;;;;;;4947492;28;20130;-75
2024/01/28 01:13:21;;;;;;;45.90;20.38;;;;;;;;;;4946436;28;20031;-75
2024/01/28 01:15:47;;;;;;;55.25;23.75;;;;;;;;;;4946195;28;20039;-74
2024/01/28 01:18:14;;;;;;;42.97;20.58;;;;;;;;;;4947916;28;20524;-75
2024/01/28 01:20:40;;;;;;;47.22;22.42;;;;;;;;;;4946537;28;20047;-76
2024/01/28 01:23:07;;;;;;;50.42;21.55;;;;;;;;;;4945738;28;20695;-76
2024/01/28 01:25:34;;;;;;;59.05;25.15;;;;;;;;;;4946356;28;20087;-75
2024/01/28 01:28:01;;;;;;;66.07;26.25;;;;;;;;;;4928942;29;20031;-76
2024/01/28 01:30:29;;;;;;;71.35;24.92;;;;;;;;;;4945220;29;20039;-76
2024/01/28 01:32:56;;;;;;;59.67;28.13;;;;;;;;;;4945748;28;20058;-75
2024/01/28 01:35:22;;;;;;;75.47;31.83;;;;;;;;;;4946929;28;20035;-76
2024/01/28 01:37:49;;;;;;;68.70;29.10;;;;;;;;;;4931746;29;20087;-76
2024/01/28 01:40:16;;;;;;;67.38;29.20;;;;;;;;;;4948563;29;20086;-75
2024/01/28 01:42:43;;;;;;;63.72;27.38;;;;;;;;;;4949591;28;20046;-76
2024/01/28 01:45:10;;;;;;;61.63;26.60;;;;;;;;;;4934016;29;20567;-76
2024/01/28 01:47:37;;;;;;;63.97;27.45;;;;;;;;;;4948963;28;20039;-75
2024/01/28 01:50:04;;;;;;;74.10;26.73;;;;;;;;;;4949505;28;20043;-75
2024/01/28 01:52:31;;;;;;;67.25;25.80;;;;;;;;;;4950210;28;20543;-75
2024/01/28 01:54:58;;;;;;;63.42;26.92;;;;;;;;;;4949920;28;20039;-76
2024/01/28 01:57:25;;;;;;;61.00;24.73;;;;;;;;;;4949483;28;20409;-74
2024/01/28 01:59:52;;;;;;;70.13;30.50;;;;;;;;;;4951016;28;20055;-76
2024/01/28 02:02:19;;;;;;;63.35;27.98;;;;;;;;;;4949792;28;20413;-74
2024/01/28 02:04:45;;;;;;;75.10;29.55;;;;;;;;;;4949278;29;20035;-75
2024/01/28 02:07:12;;;;;;;77.22;28.80;;;;;;;;;;4957888;28;20087;-78
2024/01/28 02:09:38;;;;;;;84.13;33.58;;;;;;;;;;4955298;28;20444;-76
2024/01/28 02:12:05;;;;;;;77.05;30.40;;;;;;;;;;4956111;28;20452;-77
2024/01/28 02:14:33;;;;;;;65.78;27.33;;;;;;;;;;4954613;29;20117;-77
2024/01/28 02:17:01;;;;;;;90.00;33.35;;;;;;;;;;4950241;28;20034;-76
2024/01/28 02:19:48;;;;;;;72.97;26.73;;;;;;;;;;4947189;29;20055;-76
2024/01/28 02:22:16;;;;;;;81.47;28.48;;;;;;;;;;4949827;28;20554;-76
2024/01/28 02:24:43;;;;;;;71.75;27.08;;;;;;;;;;4947854;29;20062;-75
2024/01/28 02:27:10;;;;;;;78.38;29.30;;;;;;;;;;4949574;28;20125;-76
2024/01/28 02:29:37;;;;;;;96.10;34.10;;;;;;;;;;4933584;29;20039;-76
2024/01/28 02:32:04;;;;;;;73.60;28.80;;;;;;;;;;4949625;28;20037;-76
2024/01/28 02:34:31;;;;;;;73.82;28.50;;;;;;;;;;4951374;28;20047;-77
2024/01/28 02:36:58;;;;;;;65.43;24.55;;;;;;;;;;4949453;28;20634;-75
2024/01/28 02:39:25;;;;;;;110.88;43.85;;;;;;;;;;4950286;29;20051;-75
2024/01/28 02:41:52;;;;;;;75.15;28.40;;;;;;;;;;4950075;28;20647;-75
2024/01/28 02:44:19;;;;;;;85.55;30.65;;;;;;;;;;4949250;29;20126;-74
2024/01/28 02:46:46;;;;;;;85.60;31.80;;;;;;;;;;4953236;28;20290;-74
2024/01/28 02:49:12;;;;;;;73.63;31.77;;;;;;;;;;4959299;28;20039;-75
2024/01/28 02:51:38;;;;;;;88.25;33.72;;;;;;;;;;4952137;28;20032;-75
2024/01/28 02:54:05;;;;;;;83.80;30.17;;;;;;;;;;4939854;29;20039;-75
2024/01/28 02:56:31;;;;;;;101.20;33.38;;;;;;;;;;4953357;28;20035;-75
2024/01/28 02:58:58;;;;;;;89.70;32.17;;;;;;;;;;4956136;29;20081;-76
2024/01/28 03:01:25;;;;;;;85.60;29.42;;;;;;;;;;4967064;28;20047;-75
2024/01/28 03:03:53;;;;;;;93.55;32.42;;;;;;;;;;4952311;28;20027;-75
2024/01/28 03:06:20;;;;;;;93.28;34.00;;;;;;;;;;4949507;29;20039;-75
2024/01/28 03:08:48;;;;;;;84.65;30.38;;;;;;;;;;4949850;28;20074;-75
2024/01/28 03:11:15;;;;;;;85.53;33.28;;;;;;;;;;4952799;29;20031;-75
2024/01/28 03:13:41;;;;;;;78.97;30.27;;;;;;;;;;4950055;28;20038;-75
2024/01/28 03:16:07;;;;;;;94.90;35.65;;;;;;;;;;4949411;29;20030;-75
2024/01/28 03:18:33;;;;;;;98.82;34.55;;;;;;;;;;4949306;28;20093;-75
2024/01/28 03:21:00;;;;;;;86.70;31.85;;;;;;;;;;4950850;29;20367;-75
2024/01/28 03:23:26;;;;;;;94.35;33.63;;;;;;;;;;4950585;28;20038;-75
2024/01/28 03:25:52;;;;;;;81.78;29.63;;;;;;;;;;4950720;29;20480;-75
2024/01/28 03:28:19;;;;;;;88.72;33.80;;;;;;;;;;4929858;29;20391;-76
2024/01/28 03:30:46;;;;;;;102.80;33.83;;;;;;;;;;4950313;29;20082;-76
2024/01/28 03:33:13;;;;;;;83.70;30.85;;;;;;;;;;4953890;28;20552;-76
2024/01/28 03:35:40;;;;;;;106.38;35.70;;;;;;;;;;4949998;29;20046;-75
2024/01/28 03:38:07;;;;;;;102.38;35.38;;;;;;;;;;4950872;28;20126;-75
2024/01/28 03:40:34;;;;;;;114.22;40.90;;;;;;;;;;4950321;29;20054;-74
2024/01/28 03:43:00;;;;;;;93.47;36.10;;;;;;;;;;4948999;28;20034;-75
2024/01/28 03:45:28;;;;;;;109.45;33.50;;;;;;;;;;4949031;29;20035;-76
2024/01/28 03:47:55;;;;;;;109.40;38.30;;;;;;;;;;4934225;29;20031;-76
2024/01/28 03:50:22;;;;;;;80.50;30.27;;;;;;;;;;4949041;29;20047;-74
2024/01/28 03:52:48;;;;;;;94.53;33.88;;;;;;;;;;4933829;29;20046;-76
2024/01/28 03:55:14;;;;;;;97.68;35.85;;;;;;;;;;4926137;29;20035;-75
2024/01/28 03:57:41;;;;;;;91.05;30.15;;;;;;;;;;4948462;28;20074;-76
2024/01/28 04:00:07;;;;;;;84.20;30.00;;;;;;;;;;4950480;28;20046;-74
2024/01/28 04:02:38;;;;;;;105.70;35.30;;;;;;;;;;4949874;28;20036;-75
2024/01/28 04:05:06;;;;;;;86.28;31.65;;;;;;;;;;4950293;29;20070;-75
2024/01/28 04:07:35;;;;;;;94.55;34.55;;;;;;;;;;4949816;28;20514;-76
2024/01/28 04:10:02;;;;;;;98.82;32.58;;;;;;;;;;4950294;28;20062;-74
2024/01/28 04:12:30;;;;;;;93.13;33.95;;;;;;;;;;4949608;28;20047;-75
2024/01/28 04:14:56;;;;;;;113.28;37.20;;;;;;;;;;4933096;29;20030;-75
2024/01/28 04:17:22;;;;;;;104.60;32.60;;;;;;;;;;4948455;28;20043;-74
2024/01/28 04:19:48;;;;;;;93.10;33.63;;;;;;;;;;4950930;29;20146;-75
2024/01/28 04:22:14;;;;;;;107.15;33.78;;;;;;;;;;4949722;28;20027;-75
2024/01/28 04:24:41;;;;;;;95.65;30.67;;;;;;;;;;4947203;29;20046;-75
2024/01/28 04:27:09;;;;;;;112.78;38.08;;;;;;;;;;4949698;28;20541;-76
2024/01/28 04:29:37;;;;;;;98.38;33.03;;;;;;;;;;4949835;28;20035;-76
2024/01/28 04:32:04;;;;;;;90.30;32.45;;;;;;;;;;4951687;29;20039;-76
2024/01/28 04:34:31;;;;;;;95.45;31.00;;;;;;;;;;4925118;29;20031;-78
2024/01/28 04:36:57;;;;;;;90.63;29.67;;;;;;;;;;4936602;29;20183;-75
2024/01/28 04:39:23;;;;;;;88.85;32.22;;;;;;;;;;4955175;28;20127;-75
2024/01/28 04:41:50;;;;;;;76.15;28.55;;;;;;;;;;4933356;29;20122;-75
2024/01/28 04:44:19;;;;;;;90.93;28.48;;;;;;;;;;4949361;28;20808;-75
2024/01/28 04:46:45;;;;;;;74.88;29.10;;;;;;;;;;4933190;29;20131;-77
2024/01/28 04:49:13;;;;;;;93.30;29.73;;;;;;;;;;4931234;29;20027;-77
2024/01/28 04:51:40;;;;;;;76.68;27.08;;;;;;;;;;4949204;28;20123;-76
2024/01/28 04:54:08;;;;;;;101.50;34.45;;;;;;;;;;4947911;28;20049;-76
2024/01/28 04:56:36;;;;;;;78.07;28.70;;;;;;;;;;4949803;28;20035;-75
2024/01/28 04:59:04;;;;;;;100.97;34.45;;;;;;;;;;4952053;28;20046;-75
2024/01/28 05:01:30;;;;;;;79.30;27.95;;;;;;;;;;4949440;29;20052;-75
2024/01/28 05:03:57;;;;;;;90.22;27.98;;;;;;;;;;4950727;28;20575;-75
2024/01/28 05:06:34;;;;;;;83.05;30.58;;;;;;;;;;4950969;29;20031;-76
2024/01/28 05:09:03;;;;;;;83.03;31.30;;;;;;;;;;4934039;28;20034;-76
2024/01/28 05:11:31;;;;;;;90.70;30.85;;;;;;;;;;4951974;29;20138;-76
2024/01/28 05:13:58;;;;;;;82.25;28.20;;;;;;;;;;4951572;28;20433;-76
2024/01/28 05:16:27;;;;;;;89.40;28.90;;;;;;;;;;4951623;29;20031;-75
2024/01/28 05:18:54;;;;;;;92.40;32.28;;;;;;;;;;4953443;28;20091;-75
2024/01/28 05:21:24;;;;;;;83.40;30.58;;;;;;;;;;4914680;29;20054;-75
2024/01/28 05:23:51;;;;;;;78.68;31.10;;;;;;;;;;4953464;28;20829;-74
2024/01/28 05:26:21;;;;;;;84.80;30.20;;;;;;;;;;4933839;29;20043;-76
2024/01/28 05:28:47;;;;;;;69.28;27.10;;;;;;;;;;4954040;28;20027;-75
2024/01/28 05:31:16;;;;;;;70.55;25.20;;;;;;;;;;4952715;29;20118;-76
2024/01/28 05:33:46;;;;;;;71.85;26.55;;;;;;;;;;4956251;28;20170;-80
2024/01/28 05:36:13;;;;;;;78.10;27.25;;;;;;;;;;4957154;29;20041;-81
2024/01/28 05:38:44;;;;;;;82.07;29.58;;;;;;;;;;4957226;28;20028;-79
2024/01/28 05:41:10;;;;;;;93.65;36.20;;;;;;;;;;4930773;29;20039;-70
2024/01/28 05:43:38;;;;;;;94.28;36.42;;;;;;;;;;4931560;29;20528;-71
2024/01/28 05:46:05;;;;;;;81.82;31.30;;;;;;;;;;4949750;29;20391;-70
2024/01/28 05:48:33;;;;;;;83.57;31.33;;;;;;;;;;4950545;28;20083;-69
2024/01/28 05:51:00;;;;;;;76.57;27.00;;;;;;;;;;4952250;28;20043;-70
2024/01/28 05:53:27;;;;;;;78.07;26.52;;;;;;;;;;4953380;28;20098;-69
2024/01/28 05:55:55;;;;;;;72.32;28.35;;;;;;;;;;4957914;28;20094;-71
2024/01/28 05:58:21;;;;;;;67.18;25.42;;;;;;;;;;4949594;28;20082;-70
2024/01/28 06:00:49;;;;;;;78.75;30.70;;;;;;;;;;4924541;29;20071;-72
2024/01/28 06:03:17;;;;;;;82.95;29.58;;;;;;;;;;4950013;28;20042;-71
2024/01/28 06:05:43;;;;;;;66.07;26.92;;;;;;;;;;4949149;28;20035;-71
2024/01/28 06:08:13;;;;;;;83.68;30.90;;;;;;;;;;4946561;28;20038;-71
2024/01/28 06:10:40;;;;;;;65.40;25.98;;;;;;;;;;4949176;28;20051;-71
2024/01/28 06:13:08;;;;;;;70.55;27.45;;;;;;;;;;4950477;28;20023;-70
2024/01/28 06:15:34;;;;;;;71.85;28.85;;;;;;;;;;4937714;28;20101;-71
2024/01/28 06:18:02;;;;;;;79.03;29.95;;;;;;;;;;4951519;28;20413;-70
2024/01/28 06:20:28;;;;;;;69.57;27.33;;;;;;;;;;4951992;28;20049;-70
2024/01/28 06:22:55;;;;;;;65.95;26.63;;;;;;;;;;4947581;28;20042;-71
2024/01/28 06:25:22;;;;;;;71.72;31.40;;;;;;;;;;4950330;28;20089;-70
2024/01/28 06:27:49;;;;;;;68.85;29.55;;;;;;;;;;4949749;29;20039;-70
2024/01/28 06:30:16;;;;;;;64.00;26.08;;;;;;;;;;4954449;28;20038;-70
2024/01/28 06:32:43;;;;;;;70.38;27.00;;;;;;;;;;4948136;28;20031;-69
2024/01/28 06:35:09;;;;;;;72.68;25.83;;;;;;;;;;4950035;28;20766;-70
2024/01/28 06:37:36;;;;;;;60.20;26.15;;;;;;;;;;4950093;28;20042;-69
2024/01/28 06:40:03;;;;;;;62.15;23.90;;;;;;;;;;4952336;28;20466;-72
2024/01/28 06:42:32;;;;;;;86.75;27.75;;;;;;;;;;4952686;29;20594;-72
2024/01/28 06:44:59;;;;;;;57.42;24.65;;;;;;;;;;4915699;29;20059;-77
2024/01/28 06:47:26;;;;;;;65.97;24.88;;;;;;;;;;4940393;28;20058;-71
2024/01/28 06:49:52;;;;;;;61.55;23.58;;;;;;;;;;4950411;29;20059;-69
2024/01/28 06:52:19;;;;;;;59.17;25.13;;;;;;;;;;4948553;28;20035;-69
2024/01/28 06:54:46;;;;;;;63.97;25.33;;;;;;;;;;4949111;28;20039;-70
2024/01/28 06:57:14;;;;;;;76.93;28.88;;;;;;;;;;4947420;28;20042;-71
2024/01/28 06:59:41;;;;;;;64.47;24.33;;;;;;;;;;4949326;28;20150;-72
2024/01/28 07:02:08;;;;;;;66.45;24.77;;;;;;;;;;4950597;28;20039;-72
2024/01/28 07:04:36;;;;;;;59.63;21.40;;;;;;;;;;4953360;28;20039;-73
2024/01/28 07:07:03;;;;;;;55.17;23.50;;;;;;;;;;4948069;28;20266;-72
2024/01/28 07:09:30;;;;;;;67.75;26.10;;;;;;;;;;4931370;29;20054;-71
2024/01/28 07:11:57;;;;;;;59.05;23.85;;;;;;;;;;4951689;28;20508;-71
2024/01/28 07:14:25;;;;;;;67.05;23.33;;;;;;;;;;4947961;28;20031;-71
2024/01/28 07:16:52;;;;;;;56.60;21.92;;;;;;;;;;4951518;28;20035;-74
2024/01/28 07:19:19;;;;;;;55.88;22.23;;;;;;;;;;4950555;28;20039;-72
2024/01/28 07:21:45;;;;;;;58.42;21.40;;;;;;;;;;4950568;28;20518;-72
2024/01/28 07:24:12;;;;;;;67.55;23.60;;;;;;;;;;4950011;28;20031;-71
2024/01/28 07:26:39;;;;;;;46.65;20.90;;;;;;;;;;4949474;28;20081;-71
2024/01/28 07:29:05;;;;;;;49.15;18.65;;;;;;;;;;4948210;28;20066;-72
2024/01/28 07:31:32;;;;;;;69.45;22.88;;;;;;;;;;4948209;28;20086;-71
2024/01/28 07:33:58;;;;;;;61.92;22.63;;;;;;;;;;4947511;28;20043;-70
2024/01/28 07:36:24;;;;;;;65.65;23.67;;;;;;;;;;4949503;29;20556;-71
2024/01/28 07:38:52;;;;;;;69.32;25.45;;;;;;;;;;4931816;29;20032;-71
2024/01/28 07:41:19;;;;;;;51.97;22.80;;;;;;;;;;4931348;29;20527;-71
2024/01/28 07:43:49;;;;;;;67.60;26.17;;;;;;;;;;4939915;28;20046;-71
2024/01/28 07:46:16;;;;;;;64.47;27.15;;;;;;;;;;4950310;29;20122;-71
2024/01/28 07:48:44;;;;;;;73.35;29.48;;;;;;;;;;4949334;28;20058;-70
2024/01/28 07:51:11;;;;;;;28.92;15.10;;;;;;;;;;4950599;29;20090;-71
2024/01/28 07:53:37;;;;;;;78.10;25.30;;;;;;;;;;4950794;28;20157;-71
2024/01/28 07:56:05;;;;;;;74.25;27.63;;;;;;;;;;4949797;29;20035;-71
2024/01/28 07:58:33;;;;;;;54.47;21.40;;;;;;;;;;4950298;28;20031;-72
2024/01/28 08:01:05;;;;;;;70.88;26.20;;;;;;;;;;4949197;29;20055;-71
2024/01/28 08:03:31;;;;;;;62.20;23.20;;;;;;;;;;4949518;28;20031;-72
2024/01/28 08:05:59;;;;;;;67.85;26.48;;;;;;;;;;4951125;28;20046;-71
2024/01/28 08:08:30;;;;;;;58.30;21.83;;;;;;;;;;4948785;28;20403;-71
2024/01/28 08:10:59;;;;;;;42.58;19.33;;;;;;;;;;4934429;29;20518;-70
2024/01/28 08:13:26;;;;;;;79.70;26.15;;;;;;;;;;4933418;29;20053;-71
2024/01/28 08:15:57;;;;;;;54.03;23.08;;;;;;;;;;4949594;28;20907;-71
2024/01/28 08:18:24;;;;;;;69.63;24.27;;;;;;;;;;4950253;28;20038;-71
2024/01/28 08:20:51;;;;;;;72.40;23.05;;;;;;;;;;4950858;29;20153;-70
2024/01/28 08:23:18;;;;;;;65.30;25.88;;;;;;;;;;4950054;28;20197;-70
2024/01/28 08:25:46;;;;;;;79.47;27.83;;;;;;;;;;4950467;28;20126;-71
2024/01/28 08:28:12;;;;;;;77.30;27.08;;;;;;;;;;4949292;28;20256;-71
2024/01/28 08:30:38;;;;;;;73.22;28.20;;;;;;;;;;4949913;28;20043;-70
2024/01/28 08:33:06;;;;;;;78.10;26.48;;;;;;;;;;4949423;29;20034;-71
2024/01/28 08:35:33;;;;;;;79.35;27.98;;;;;;;;;;4949232;29;20035;-69
2024/01/28 08:38:01;;;;;;;82.88;27.00;;;;;;;;;;4949283;29;20418;-70
2024/01/28 08:40:30;;;;;;;75.68;25.00;;;;;;;;;;4949984;28;20055;-71
2024/01/28 08:42:57;;;;;;;79.32;27.48;;;;;;;;;;4950889;28;20129;-70
2024/01/28 08:45:24;;;;;;;79.07;26.08;;;;;;;;;;4948980;28;20039;-71
2024/01/28 08:47:51;;;;;;;92.38;28.58;;;;;;;;;;4951059;29;20101;-71
2024/01/28 08:50:18;;;;;;;76.93;27.02;;;;;;;;;;4955248;28;20043;-70
2024/01/28 08:52:45;;;;;;;58.60;22.33;;;;;;;;;;4953681;28;20039;-70
2024/01/28 08:55:13;;;;;;;64.30;21.25;;;;;;;;;;4950710;28;20062;-70
2024/01/28 08:57:41;;;;;;;63.78;23.35;;;;;;;;;;4949982;28;20039;-71
2024/01/28 09:00:11;;;;;;;81.90;25.88;;;;;;;;;;4948756;28;20062;-70
2024/01/28 09:02:39;;;;;;;105.10;28.40;;;;;;;;;;4931035;29;20376;-71
2024/01/28 09:05:07;;;;;;;89.65;26.20;;;;;;;;;;4945483;28;20043;-70
2024/01/28 09:07:34;;;;;;;63.25;23.02;;;;;;;;;;4948560;29;20035;-71
2024/01/28 09:10:03;;;;;;;39.38;18.65;;;;;;;;;;4932900;29;20035;-70
2024/01/28 09:12:32;;;;;;;85.13;29.30;;;;;;;;;;4949843;28;20536;-70
2024/01/28 09:14:58;;;;;;;85.97;29.33;;;;;;;;;;4950387;28;20035;-69
2024/01/28 09:17:24;;;;;;;97.68;29.77;;;;;;;;;;4949787;28;20047;-70
2024/01/28 09:19:51;;;;;;;64.65;19.73;;;;;;;;;;4921598;29;20051;-70
2024/01/28 09:22:22;;;;;;;86.38;29.77;;;;;;;;;;4930564;29;20516;-69
2024/01/28 09:24:50;;;;;;;85.85;30.85;;;;;;;;;;4925119;29;20126;-70
2024/01/28 09:27:17;;;;;;;98.20;29.08;;;;;;;;;;4948829;29;20038;-70
2024/01/28 09:29:45;;;;;;;87.53;28.00;;;;;;;;;;4949599;28;20046;-70
2024/01/28 09:32:12;;;;;;;86.28;30.27;;;;;;;;;;4950403;29;20031;-70
2024/01/28 09:34:39;;;;;;;109.25;32.08;;;;;;;;;;4941355;28;20043;-70
2024/01/28 09:37:07;;;;;;;100.30;31.90;;;;;;;;;;4952839;28;20093;-70
2024/01/28 09:39:36;;;;;;;91.53;30.05;;;;;;;;;;4967348;28;20134;-69
2024/01/28 09:42:15;;;;;;;42.85;17.80;;;;;;;;;;4952023;28;20730;-70
2024/01/28 09:44:41;;;;;;;84.65;26.65;;;;;;;;;;4969121;28;20462;-70
2024/01/28 09:47:08;;;;;;;60.35;20.45;;;;;;;;;;4968299;28;20045;-70
2024/01/28 09:49:44;;;;;;;82.63;29.63;;;;;;;;;;4967719;28;20114;-70
2024/01/28 09:52:13;;;;;;;88.28;31.45;;;;;;;;;;4969691;28;20109;-70
2024/01/28 09:54:47;;;;;;;100.88;34.42;;;;;;;;;;4969481;28;20488;-70
2024/01/28 09:57:15;;;;;;;68.75;23.92;;;;;;;;;;4972841;28;20053;-70
2024/01/28 09:59:41;;;;;;;85.30;27.73;;;;;;;;;;4945436;28;20059;-71
2024/01/28 10:02:09;;;;;;;70.57;26.05;;;;;;;;;;4954024;28;20496;-70
2024/01/28 10:04:39;;;;;;;86.43;28.17;;;;;;;;;;4953711;28;20078;-70
2024/01/28 10:07:09;;;;;;;77.25;25.60;;;;;;;;;;4953790;28;20145;-70
2024/01/28 10:09:40;;;;;;;86.15;29.85;;;;;;;;;;4952142;28;20046;-70
2024/01/28 10:12:08;;;;;;;80.00;28.63;;;;;;;;;;4953630;29;20035;-70
2024/01/28 10:14:35;;;;;;;73.40;29.88;;;;;;;;;;4952423;28;20027;-70
2024/01/28 10:17:01;;;;;;;92.03;29.15;;;;;;;;;;4952246;29;20062;-71
2024/01/28 10:19:27;;;;;;;37.65;14.30;;;;;;;;;;4952449;28;20028;-70
2024/01/28 10:21:53;;;;;;;73.90;25.70;;;;;;;;;;4953199;28;20533;-70
2024/01/28 10:24:19;;;;;;;90.10;30.17;;;;;;;;;;4951744;28;20155;-70
2024/01/28 10:26:46;;;;;;;99.13;30.58;;;;;;;;;;4920096;29;20050;-70
2024/01/28 10:29:13;;;;;;;88.78;31.45;;;;;;;;;;4950396;28;20577;-71
2024/01/28 10:31:40;;;;;;;79.63;26.17;;;;;;;;;;4952096;28;20047;-69
2024/01/28 10:34:08;;;;;;;77.03;27.40;;;;;;;;;;4969579;28;20125;-70
2024/01/28 10:36:37;;;;;;;81.53;28.10;;;;;;;;;;4971655;28;20041;-69
2024/01/28 10:39:04;;;;;;;83.40;28.00;;;;;;;;;;4971815;28;20034;-70
2024/01/28 10:41:32;;;;;;;83.57;29.27;;;;;;;;;;4936890;29;20053;-69
2024/01/28 10:44:09;;;;;;;90.00;30.33;;;;;;;;;;4968981;28;20038;-70
2024/01/28 10:46:40;;;;;;;81.07;30.55;;;;;;;;;;4970419;28;20031;-69
2024/01/28 10:49:09;;;;;;;98.53;33.42;;;;;;;;;;4939550;28;20035;-70
2024/01/28 10:51:36;;;;;;;96.63;32.42;;;;;;;;;;4952736;28;20035;-69
2024/01/28 10:54:03;;;;;;;87.05;29.60;;;;;;;;;;4967407;28;20043;-70
2024/01/28 10:56:34;;;;;;;86.63;29.73;;;;;;;;;;4971531;28;20117;-70
2024/01/28 10:59:02;;;;;;;104.20;30.05;;;;;;;;;;4969674;28;20513;-70
2024/01/28 11:01:38;;;;;;;91.95;32.28;;;;;;;;;;4953203;28;20146;-70
2024/01/28 11:04:05;;;;;;;96.57;32.03;;;;;;;;;;4951228;28;20498;-70
2024/01/28 11:06:33;;;;;;;97.68;32.22;;;;;;;;;;4952041;28;20532;-70
2024/01/28 11:09:04;;;;;;;80.72;30.30;;;;;;;;;;4950195;28;20502;-70
2024/01/28 11:11:32;;;;;;;106.78;33.75;;;;;;;;;;4950225;29;20031;-70
2024/01/28 11:14:04;;;;;;;96.50;34.72;;;;;;;;;;4935500;29;20094;-70
2024/01/28 11:16:33;;;;;;;100.65;31.85;;;;;;;;;;4951962;28;20039;-70
2024/01/28 11:19:06;;;;;;;26.90;12.13;;;;;;;;;;4934725;29;20102;-71
2024/01/28 11:21:34;;;;;;;106.75;36.25;;;;;;;;;;4918821;29;20046;-69
2024/01/28 11:24:06;;;;;;;112.57;34.17;;;;;;;;;;4966493;28;20065;-69
2024/01/28 11:26:38;;;;;;;55.05;22.38;;;;;;;;;;4969738;28;20031;-70
2024/01/28 11:29:06;;;;;;;97.55;31.33;;;;;;;;;;4970606;28;20034;-69
2024/01/28 11:31:33;;;;;;;99.95;34.30;;;;;;;;;;4954661;28;20604;-70
2024/01/28 11:34:27;;;;;;;92.60;31.63;;;;;;;;;;4950558;28;20039;-70
2024/01/28 11:36:54;;;;;;;69.40;25.58;;;;;;;;;;4943346;29;20051;-69
2024/01/28 11:39:45;;;;;;;101.18;35.85;;;;;;;;;;4950079;28;20636;-71
2024/01/28 11:42:17;;;;;;;106.32;40.78;;;;;;;;;;4934767;29;20043;-70
2024/01/28 11:44:44;;;;;;;94.60;33.97;;;;;;;;;;4934357;29;20139;-69
2024/01/28 11:47:13;;;;;;;67.80;28.10;;;;;;;;;;4932563;29;20573;-70
2024/01/28 11:49:40;;;;;;;49.42;21.27;;;;;;;;;;4934641;29;20130;-70
2024/01/28 11:52:07;;;;;;;105.60;37.47;;;;;;;;;;4951407;28;20043;-70
2024/01/28 11:54:36;;;;;;;62.85;22.63;;;;;;;;;;4949892;28;20050;-70
2024/01/28 11:57:05;;;;;;;88.10;32.65;;;;;;;;;;4951453;28;20039;-69
2024/01/28 11:59:35;;;;;;;95.35;35.25;;;;;;;;;;4949497;28;20047;-70
2024/01/28 12:02:02;;;;;;;97.18;34.92;;;;;;;;;;4934097;29;20031;-69
2024/01/28 12:04:30;;;;;;;94.95;34.95;;;;;;;;;;4934580;29;20062;-70
2024/01/28 12:06:58;;;;;;;89.03;32.80;;;;;;;;;;4934519;29;20035;-69
2024/01/28 12:09:27;;;;;;;92.68;33.03;;;;;;;;;;4950906;28;20050;-69
2024/01/28 12:11:54;;;;;;;89.75;32.00;;;;;;;;;;4949517;29;20071;-69
2024/01/28 12:14:25;;;;;;;96.15;32.97;;;;;;;;;;4951372;28;20038;-70
2024/01/28 12:16:52;;;;;;;76.22;29.20;;;;;;;;;;4950009;29;20043;-70
2024/01/28 12:19:18;;;;;;;102.03;32.63;;;;;;;;;;4951435;28;20391;-69
2024/01/28 12:21:47;;;;;;;81.35;29.23;;;;;;;;;;4950698;29;20181;-69
2024/01/28 12:24:15;;;;;;;93.40;32.92;;;;;;;;;;4951458;28;20041;-70
2024/01/28 12:26:43;;;;;;;101.55;35.65;;;;;;;;;;4951011;29;20043;-70
2024/01/28 12:29:10;;;;;;;105.22;36.88;;;;;;;;;;4951544;28;20039;-73
2024/01/28 12:31:41;;;;;;;109.50;35.88;;;;;;;;;;4950511;28;20601;-70
2024/01/28 12:34:15;;;;;;;94.25;33.80;;;;;;;;;;4963175;28;20545;-69
2024/01/28 12:36:43;;;;;;;96.78;30.65;;;;;;;;;;4970356;28;20085;-70
2024/01/28 12:39:11;;;;;;;108.18;38.13;;;;;;;;;;4952863;28;20053;-70
2024/01/28 12:41:39;;;;;;;117.97;39.85;;;;;;;;;;4955930;28;20055;-70
2024/01/28 12:44:06;;;;;;;85.00;30.63;;;;;;;;;;4960496;28;20125;-70
2024/01/28 12:46:33;;;;;;;113.97;38.55;;;;;;;;;;4968681;28;20034;-70
2024/01/28 12:49:00;;;;;;;106.20;37.55;;;;;;;;;;4968393;28;20046;-69
2024/01/28 12:51:27;;;;;;;101.18;35.17;;;;;;;;;;4940246;29;20038;-68
2024/01/28 12:53:53;;;;;;;81.13;31.88;;;;;;;;;;4959329;28;20035;-71
2024/01/28 12:56:20;;;;;;;114.57;39.05;;;;;;;;;;4969853;28;20043;-69
2024/01/28 12:58:47;;;;;;;107.88;36.28;;;;;;;;;;4969500;28;20117;-70
2024/01/28 13:01:16;;;;;;;101.32;35.47;;;;;;;;;;4957227;28;20085;-70
2024/01/28 13:03:43;;;;;;;72.75;28.92;;;;;;;;;;4948020;28;20038;-70
2024/01/28 13:06:10;;;;;;;77.10;30.02;;;;;;;;;;4932761;29;20046;-69
2024/01/28 13:08:37;;;;;;;113.00;38.95;;;;;;;;;;4932171;29;20041;-70
2024/01/28 13:11:05;;;;;;;107.75;38.17;;;;;;;;;;4949256;28;20102;-70
2024/01/28 13:13:34;;;;;;;104.13;37.28;;;;;;;;;;4949345;28;20047;-70
2024/01/28 13:16:00;;;;;;;104.25;37.70;;;;;;;;;;4948165;29;20031;-70
2024/01/28 13:18:29;;;;;;;99.97;37.35;;;;;;;;;;4949362;28;20047;-69
2024/01/28 13:20:57;;;;;;;98.22;34.88;;;;;;;;;;4949244;28;20073;-70
2024/01/28 13:23:25;;;;;;;77.25;31.98;;;;;;;;;;4948215;28;20036;-69
2024/01/28 13:25:52;;;;;;;90.43;36.92;;;;;;;;;;4950324;29;20046;-70
2024/01/28 13:28:20;;;;;;;80.20;32.08;;;;;;;;;;4951772;28;20843;-71
2024/01/28 13:30:48;;;;;;;77.25;27.45;;;;;;;;;;4960423;28;20038;-77
2024/01/28 13:33:16;;;;;;;95.97;34.53;;;;;;;;;;4964343;28;20039;-76
2024/01/28 13:35:43;;;;;;;90.22;35.75;;;;;;;;;;4970706;28;20042;-77
2024/01/28 13:38:10;;;;;;;102.18;35.40;;;;;;;;;;4958739;28;20502;-75
2024/01/28 13:40:39;;;;;;;84.20;31.05;;;;;;;;;;4954374;28;20134;-76
2024/01/28 13:43:06;;;;;;;103.55;35.85;;;;;;;;;;4952567;29;20524;-76
2024/01/28 13:45:34;;;;;;;101.57;34.75;;;;;;;;;;4934499;29;20099;-76
2024/01/28 13:48:03;;;;;;;74.22;32.08;;;;;;;;;;4933459;29;20446;-76
2024/01/28 13:50:31;;;;;;;78.53;28.80;;;;;;;;;;4952857;28;20042;-76
2024/01/28 13:52:58;;;;;;;77.70;29.38;;;;;;;;;;4953990;28;20031;-76
2024/01/28 13:55:27;;;;;;;90.97;33.47;;;;;;;;;;4974225;28;20034;-76
2024/01/28 13:57:56;;;;;;;75.95;29.77;;;;;;;;;;4984661;28;20130;-76
2024/01/28 14:00:24;;;;;;;88.95;33.78;;;;;;;;;;4969947;28;20066;-75
2024/01/28 14:02:52;;;;;;;79.78;32.33;;;;;;;;;;4953970;29;20739;-76
2024/01/28 14:05:20;;;;;;;69.63;29.15;;;;;;;;;;4937056;28;20045;-76
2024/01/28 14:07:47;;;;;;;63.17;24.63;;;;;;;;;;4971423;28;20035;-75
2024/01/28 14:10:14;;;;;;;38.28;17.08;;;;;;;;;;4957275;28;20043;-75
2024/01/28 14:12:42;;;;;;;21.13;10.70;;;;;;;;;;4936093;29;20038;-75
2024/01/28 14:15:11;;;;;;;56.60;23.98;;;;;;;;;;4951611;28;20425;-75
2024/01/28 14:17:39;;;;;;;65.68;29.70;;;;;;;;;;4971677;28;20035;-74
2024/01/28 14:20:08;;;;;;;62.20;28.05;;;;;;;;;;4971537;28;20584;-75